ユジノサハリンスク の空港の天気 - METARとTAF

ホムトヴォ空港(ユジノサハリンスク) ( UHSS / UUS ) - ロシア ユジノサハリンスク
飛行場実況気象(Metar)
観測時間10/20 14:00 VLAT (10/20 04:00 UTC)
風向・風速北 6m/s
視程10km以上
天気現象弱いしゅう雨
全天の8割程度の雲 雲底高度 820m
気温9℃
湿度87%
気圧1014hPa
METARUHSS 200400Z 36006MPS 9999 -SHRA BKN027CB 09/07 Q1014 R01/250255 NOSIG RMK MT OBSC QFE759/1012
過去の天気等 Google飛行場航空写真 Wunderground天気予報

過去48時間のMETAR

飛行場予報(TAF)
発表時間: 10/20 11:49 VLAT (10/20 01:49 UTC)
予報対象時間: 20日13時 VLAT ~ 21日19時 VLAT
風向・風速北 3m/s
視程10km以上
全天の8割程度の雲 雲底高度 150m
全天の8割程度の積乱雲 雲底高度 760m
20日13時 VLAT ~ 20日16時 VLAT に一時的に
天気現象弱いしゅう雨
20日18時 VLAT ~ 20日20時 VLAT に徐々に
風向・風速北西 3m/s
20日20時 VLAT ~ 20日21時 VLAT に徐々に
全天の8割程度の積乱雲 雲底高度 910m
21日12時 VLAT ~ 21日13時 VLAT に徐々に
風向・風速西南西 3m/s
TAF UHSS 200149Z 2003/2109 36003MPS 9999 BKN005 BKN025CB
TEMPO 2003/2006 -SHRA
BECMG 2008/2010 32003MPS
BECMG 2010/2011 BKN030CB
BECMG 2102/2103 24003MPS